LEZLLPFR

Guest
Details From LEZL - Sevilla
To LPFR - Faro
Flight Number -
Tags generated
Created
Modified
Stats Distance 102 nm / 190 km
Max Altitude 6,200 ft / 1,890 m
Waypoints 3
Social Downloads 5
Likes 0
Share VATSIM

Download

Looking for another format? Having issues loading an existing format? Contact us
Advertisement - Login to hide

Notes

Basic altitude profile: - Ascent Rate: 2500ft/min - Ascent Speed: 250kts - Cruise Altitude: 35000ft - Cruise Speed: 420kts - Descent Rate: 1500ft/min - Descent Speed: 250kts

Route

LEZL MINTA LPFR

ID Type Via Altitude Latitude Longitude Leg Dist Tot Dist Heading (true) Name
O LEZL APT - 0 ft / 0 m 37.41794˚ -5.89309˚ - 0 nm - Sevilla
MINTA FIX - 6,200 ft / 1,890 m 37.12882˚ -7.38333˚ 73 nm 73 nm 257° / 256° -
O LPFR APT - 0 ft / 0 m 37.01534˚ -7.97233˚ 29 nm 102 nm 257° / 256° Faro

Altitude Profile

Advertisement - Login to hide

LEZL

Details ICAO LEZL (SVQ)
Name Sevilla
Region Spain
Timezone Europe/Madrid (UTC+2.0)
Stats Elevation 111 ft / 34 m (AMSL)
Location 37.417939° -5.893093°
Runways 1
Magnetic Variation 1.246° W

METAR

LEZL 201430Z 34005KT 240V050 CAVOK 24/15 Q1012 NOSIG

Decode

TAF

TAF LEZL 201400Z 2015/2115 36009KT 9999 FEW040 TX25/2115Z TN14/2105Z PROB40 TEMPO 2015/2020 18015G25KT 4000 TSRA SCT020 SCT035CB

Decode

Departure Runways

ID Width Length Bearing (true) Bearing (mag) Surface Threshold Offset Overrun Length
09 148 ft / 45 m 11,008 ft / 3,355 m 89.75° 91.00° Asphalt 0 ft / 0 m 0 ft / 0 m
27 148 ft / 45 m 11,008 ft / 3,355 m 269.77° 271.02° Asphalt 0 ft / 0 m 0 ft / 0 m

LPFR

Details ICAO LPFR (FAO)
Name Faro
Region Portugal
Timezone Europe/Lisbon (UTC+1.0)
Stats Elevation 24 ft / 7 m (AMSL)
Location 37.015336° -7.972327°
Runways 1
Magnetic Variation 1.884° W

METAR

LPFR 201430Z 29003KT 220V030 9999 -TSRA FEW030CB 19/14 Q1014

Decode

TAF

TAF LPFR 201100Z 2012/2112 22010KT 9999 FEW030TCU PROB40 TEMPO 2012/2021 VRB15G25KT 5000 TSRA SCT025CB BECMG 2015/2018 30008KT BECMG 2021/2024 VRB05KT SCT012 PROB30 TEMPO 2100/2109 5000 BR BKN005 BECMG 2109/2111 24010KT FEW030

Decode

Destination Runways

ID Width Length Bearing (true) Bearing (mag) Surface Threshold Offset Overrun Length
10 148 ft / 45 m 8,148 ft / 2,484 m 100.08° 101.96° Asphalt 148 ft / 45 m 0 ft / 0 m
28 148 ft / 45 m 8,148 ft / 2,484 m 280.10° 281.98° Asphalt 148 ft / 45 m 0 ft / 0 m

Approach Navaids

Runway Type Ident Frequency Range Bearing (true) Bearing (mag) Slope Elevation
28 Localiser IIF 109.50 MHz 18 nm / 33 km 280.16° 282.05° - 24 ft / 7 m (AMSL)
28 Glidescope IIF 109.50 MHz 10 nm / 19 km 280.09° 281.97° 3.00° 24 ft / 7 m (AMSL)
28 DME IIF 109.50 MHz 18 nm / 33 km - - - 24 ft / 7 m (AMSL)

Popular Alternatives